createdAt,value
2019-04-30T00:01:28.067Z,4.05
2019-04-30T00:03:59.347Z,3.50
2019-04-30T00:06:28.802Z,3.20
2019-04-30T00:08:55.048Z,3.02
2019-04-30T00:11:21.551Z,3.60
2019-04-30T00:13:50.161Z,3.35
2019-04-30T00:16:16.441Z,3.40
2019-04-30T00:18:54.834Z,3.00
2019-04-30T00:21:15.103Z,3.55
2019-04-30T00:23:39.452Z,4.40
2019-04-30T00:26:10.306Z,3.60
2019-04-30T00:28:35.390Z,3.50
2019-04-30T00:31:02.039Z,4.08
2019-04-30T00:33:28.568Z,4.10
2019-04-30T00:35:57.817Z,3.62
2019-04-30T00:38:24.811Z,4.10
2019-04-30T00:40:52.138Z,3.45
2019-04-30T00:43:19.497Z,3.72
2019-04-30T00:45:47.573Z,3.70
2019-04-30T00:48:19.409Z,3.80
2019-04-30T00:50:43.361Z,3.25
2019-04-30T00:53:12.550Z,3.75
2019-04-30T00:55:44.222Z,3.52
2019-04-30T00:58:06.832Z,3.70
2019-04-30T01:00:37.100Z,3.55
2019-04-30T01:03:11.169Z,3.60
2019-04-30T01:05:39.563Z,3.75
2019-04-30T01:08:07.112Z,4.90
2019-04-30T01:10:34.794Z,5.05
2019-04-30T01:13:08.196Z,4.30
2019-04-30T01:15:29.648Z,3.90
2019-04-30T01:17:56.214Z,3.22
2019-04-30T01:20:31.033Z,3.50
2019-04-30T01:22:55.168Z,3.30
2019-04-30T01:25:22.340Z,3.62
2019-04-30T01:27:50.777Z,3.47
2019-04-30T01:30:22.429Z,3.15
2019-04-30T01:32:52.123Z,3.22
2019-04-30T01:35:14.516Z,2.95
2019-04-30T01:37:41.196Z,3.12
2019-04-30T01:40:13.584Z,3.70
2019-04-30T01:42:36.393Z,3.85
2019-04-30T01:45:05.228Z,4.70
2019-04-30T01:47:31.723Z,3.80
2019-04-30T01:50:03.050Z,3.65
2019-04-30T01:52:31.053Z,4.12
2019-04-30T01:54:58.560Z,3.90
2019-04-30T01:57:32.667Z,3.87
2019-04-30T02:02:49.497Z,4.70
2019-04-30T02:05:15.265Z,3.80
2019-04-30T02:07:41.816Z,4.03
2019-04-30T02:10:08.774Z,4.05
2019-04-30T02:12:35.321Z,3.90
2019-04-30T02:15:01.971Z,4.35
2019-04-30T02:17:29.811Z,4.45
2019-04-30T02:19:56.981Z,4.65
2019-04-30T02:22:24.514Z,4.37
2019-04-30T02:24:50.951Z,4.33
2019-04-30T02:27:19.471Z,4.30
2019-04-30T02:29:45.633Z,4.53
2019-04-30T02:32:12.089Z,4.22
2019-04-30T02:34:49.797Z,4.03
2019-04-30T02:37:23.991Z,3.98
2019-04-30T02:42:20.075Z,3.70
2019-04-30T02:44:50.426Z,4.25
2019-04-30T02:47:20.348Z,3.72
2019-04-30T02:49:52.940Z,4.67
2019-04-30T02:52:21.843Z,4.40
2019-04-30T02:54:52.003Z,4.15
2019-04-30T02:57:20.415Z,5.03
2019-04-30T03:00:05.575Z,4.20
2019-04-30T03:02:32.795Z,4.30
2019-04-30T03:05:00.238Z,4.15
2019-04-30T03:07:29.373Z,4.45
2019-04-30T03:09:55.390Z,4.58
2019-04-30T03:12:21.848Z,4.42
2019-04-30T03:14:50.209Z,4.20
2019-04-30T03:17:20.913Z,3.62
2019-04-30T03:19:54.375Z,4.62
2019-04-30T03:24:50.120Z,5.35
2019-04-30T03:27:16.891Z,5.40
2019-04-30T03:29:43.373Z,4.85
2019-04-30T03:32:13.466Z,5.62
2019-04-30T03:34:41.941Z,5.72
2019-04-30T03:37:06.385Z,4.58
2019-04-30T03:39:34.006Z,5.15
2019-04-30T03:42:00.787Z,4.80
2019-04-30T03:44:31.688Z,4.85
2019-04-30T03:46:55.483Z,4.50
2019-04-30T03:49:21.944Z,5.33
2019-04-30T03:51:49.901Z,5.08
2019-04-30T03:54:19.104Z,4.30
2019-04-30T03:56:45.114Z,4.28
2019-04-30T03:59:11.598Z,4.80
2019-04-30T04:01:46.277Z,4.67
2019-04-30T04:04:33.090Z,4.03
2019-04-30T04:07:10.071Z,4.55
2019-04-30T04:09:49.691Z,4.83
2019-04-30T04:12:23.143Z,4.58
2019-04-30T04:14:51.122Z,4.80
2019-04-30T04:17:20.229Z,5.67
2019-04-30T04:19:50.762Z,6.25
2019-04-30T04:22:20.564Z,4.97
2019-04-30T04:24:50.112Z,5.08
2019-04-30T04:27:16.212Z,4.90
2019-04-30T04:29:42.751Z,6.40
2019-04-30T04:32:10.573Z,5.97
2019-04-30T04:34:39.909Z,5.05
2019-04-30T04:37:05.977Z,5.40
2019-04-30T04:39:32.428Z,5.20
2019-04-30T04:41:59.959Z,4.15
2019-04-30T04:44:29.370Z,4.30
2019-04-30T04:46:55.072Z,3.92
2019-04-30T04:49:21.530Z,3.77
2019-04-30T04:51:49.269Z,4.50
2019-04-30T04:54:15.793Z,4.05
2019-04-30T04:56:42.233Z,4.53
2019-04-30T04:59:10.267Z,4.70
2019-04-30T05:01:38.653Z,5.20
2019-04-30T05:04:05.158Z,6.62
2019-04-30T05:06:31.585Z,7.30
2019-04-30T05:08:59.172Z,6.15
2019-04-30T05:11:26.267Z,5.65
2019-04-30T05:13:52.758Z,5.33
2019-04-30T05:16:19.248Z,6.60
2019-04-30T05:18:46.379Z,9.20
2019-04-30T05:21:12.915Z,15.53
2019-04-30T05:23:42.676Z,13.90
2019-04-30T05:26:10.957Z,9.25
2019-04-30T05:28:52.462Z,8.55
2019-04-30T05:31:24.849Z,6.65
2019-04-30T05:33:51.299Z,5.50
2019-04-30T05:36:19.197Z,5.42
2019-04-30T05:38:51.995Z,6.15
2019-04-30T05:41:19.271Z,5.78
2019-04-30T05:43:46.389Z,5.55
2019-04-30T05:46:23.809Z,5.53
2019-04-30T05:48:50.354Z,6.22
2019-04-30T05:51:19.309Z,5.05
2019-04-30T05:53:45.261Z,5.80
2019-04-30T05:56:11.820Z,5.28
2019-04-30T05:58:59.409Z,6.60
2019-04-30T06:01:26.078Z,6.85
2019-04-30T06:03:54.519Z,6.20
2019-04-30T06:06:21.877Z,5.78
2019-04-30T06:09:14.705Z,6.47
2019-04-30T06:11:59.051Z,6.30
2019-04-30T06:14:48.011Z,7.20
2019-04-30T06:17:07.030Z,8.10
2019-04-30T06:19:33.588Z,7.97
2019-04-30T06:22:07.441Z,7.62
2019-04-30T06:24:30.217Z,8.15
2019-04-30T06:26:58.906Z,8.35
2019-04-30T06:29:25.397Z,7.42
2019-04-30T06:31:52.362Z,7.83
2019-04-30T06:34:20.018Z,7.67
2019-04-30T06:36:53.157Z,7.12
2019-04-30T06:39:15.050Z,7.35
2019-04-30T06:41:41.697Z,8.30
2019-04-30T06:44:37.332Z,7.45
2019-04-30T06:47:01.247Z,5.92
2019-04-30T06:49:29.062Z,7.05
2019-04-30T06:51:56.401Z,7.92
2019-04-30T06:54:23.950Z,8.00
2019-04-30T06:56:50.531Z,7.00
2019-04-30T06:59:17.197Z,7.37
2019-04-30T07:01:43.690Z,7.03
2019-04-30T07:04:10.478Z,7.35
2019-04-30T07:06:43.505Z,6.80
2019-04-30T07:09:26.663Z,6.80
2019-04-30T07:11:55.285Z,7.50
2019-04-30T07:14:23.659Z,7.17
2019-04-30T07:16:50.201Z,7.17
2019-04-30T07:19:29.954Z,7.17
2019-04-30T07:21:45.363Z,6.67
2019-04-30T07:24:12.381Z,7.53
2019-04-30T07:26:38.967Z,7.05
2019-04-30T07:29:06.773Z,7.20
2019-04-30T07:31:33.341Z,6.78
2019-04-30T07:33:59.773Z,7.00
2019-04-30T07:36:43.251Z,7.67
2019-04-30T07:38:56.775Z,7.12
2019-04-30T07:41:22.762Z,6.50
2019-04-30T07:43:50.682Z,7.10
2019-04-30T07:46:17.248Z,6.60
2019-04-30T07:48:43.764Z,7.03
2019-04-30T07:51:11.467Z,6.05
2019-04-30T07:53:40.451Z,6.28
2019-04-30T07:56:23.599Z,6.15
2019-04-30T07:58:35.129Z,6.30
2019-04-30T08:01:02.909Z,5.85
2019-04-30T08:03:46.524Z,6.00
2019-04-30T08:06:14.366Z,5.78
2019-04-30T08:08:41.184Z,5.28
2019-04-30T08:11:09.277Z,5.50
2019-04-30T08:13:36.576Z,5.42
2019-04-30T08:16:04.073Z,6.60
2019-04-30T08:18:30.730Z,6.50
2019-04-30T08:20:58.674Z,6.37
2019-04-30T08:23:34.947Z,5.97
2019-04-30T08:25:53.865Z,5.42
2019-04-30T08:28:20.325Z,5.60
2019-04-30T08:30:48.872Z,5.72
2019-04-30T08:33:15.276Z,5.28
2019-04-30T08:35:41.742Z,4.10
2019-04-30T08:38:10.610Z,2.70
2019-04-30T08:40:36.674Z,0.70
2019-04-30T08:43:03.551Z,0.20
2019-04-30T08:45:34.418Z,0.50
2019-04-30T08:47:59.089Z,0.62
2019-04-30T08:50:25.562Z,0.20
2019-04-30T08:52:52.052Z,0.30
2019-04-30T08:55:19.741Z,0.30
2019-04-30T08:57:46.808Z,0.42
2019-04-30T09:00:15.101Z,0.50
2019-04-30T09:02:43.000Z,1.05
2019-04-30T09:05:15.066Z,0.20
2019-04-30T09:07:43.553Z,0.20
2019-04-30T09:10:10.322Z,0.10
2019-04-30T09:12:36.896Z,0.47
2019-04-30T09:15:06.331Z,2.60
2019-04-30T09:17:32.803Z,1.67
2019-04-30T09:19:59.260Z,0.60
2019-04-30T09:22:25.724Z,0.33
2019-04-30T12:56:16.728Z,0.20
2019-04-30T12:58:46.019Z,0.10
2019-04-30T13:01:13.345Z,19.12
2019-04-30T13:03:40.548Z,26.05
2019-04-30T13:06:12.842Z,1.70
2019-04-30T13:08:44.794Z,0.35
2019-04-30T13:11:25.123Z,0.62
2019-04-30T13:13:52.005Z,0.30
2019-04-30T13:22:58.881Z,0.20
2019-04-30T13:28:53.718Z,0.10
2019-04-30T13:34:36.553Z,0.10
2019-04-30T13:37:04.850Z,0.90
2019-04-30T13:39:33.421Z,0.93
2019-04-30T13:42:02.089Z,0.23
2019-04-30T13:44:45.371Z,0.50
2019-04-30T13:47:15.173Z,1.25
2019-04-30T13:49:49.497Z,2.10
2019-04-30T13:52:17.674Z,1.32
2019-04-30T13:54:44.447Z,1.90
2019-04-30T13:57:11.013Z,0.30
2019-04-30T14:02:47.906Z,0.50
2019-04-30T14:05:17.007Z,0.10
2019-04-30T14:16:38.094Z,0.20
2019-04-30T14:19:05.359Z,0.20
2019-04-30T14:21:35.293Z,1.00
2019-04-30T14:24:01.584Z,0.10
2019-04-30T14:26:29.184Z,0.10
2019-04-30T14:28:56.084Z,0.30
2019-04-30T14:31:26.343Z,0.30
2019-04-30T14:33:56.965Z,1.20
2019-04-30T14:36:24.907Z,0.35
2019-04-30T14:39:10.576Z,0.20
2019-04-30T14:41:27.001Z,0.20
2019-04-30T14:43:56.698Z,0.10
2019-04-30T14:50:02.571Z,0.60
2019-04-30T14:52:40.324Z,0.88
2019-04-30T14:55:21.659Z,1.10
2019-04-30T15:04:02.751Z,0.60
2019-04-30T15:06:43.745Z,5.75
2019-04-30T15:09:17.519Z,0.50
2019-04-30T15:11:45.498Z,25.37
2019-04-30T15:17:19.683Z,0.30
2019-04-30T15:20:08.667Z,4.22
2019-04-30T15:22:38.843Z,19.35
2019-04-30T15:25:05.646Z,4.15
2019-04-30T15:27:49.646Z,2.20
2019-04-30T15:30:21.523Z,1.10
2019-04-30T15:32:49.467Z,0.57
2019-04-30T15:35:16.388Z,1.15
2019-04-30T15:37:44.992Z,1.60
2019-04-30T15:40:12.049Z,4.50
2019-04-30T15:42:40.518Z,4.80
2019-04-30T15:45:09.166Z,5.80
2019-04-30T15:47:35.804Z,3.12
2019-04-30T15:50:04.713Z,3.72
2019-04-30T15:52:31.198Z,2.98
2019-04-30T16:07:16.624Z,1.40
2019-04-30T16:09:49.005Z,1.20
2019-04-30T16:12:25.833Z,0.80
2019-04-30T16:14:54.797Z,1.00
2019-04-30T16:17:23.797Z,0.82
2019-04-30T16:19:51.571Z,0.90
2019-04-30T16:22:25.062Z,0.70
2019-04-30T16:27:55.047Z,0.65
2019-04-30T16:30:22.891Z,0.60
2019-04-30T16:32:51.279Z,0.70
2019-04-30T16:35:19.665Z,0.90
2019-04-30T16:43:01.902Z,3.05
2019-04-30T16:45:31.874Z,1.87
2019-04-30T16:48:11.907Z,2.10
2019-04-30T16:50:38.525Z,1.32
2019-04-30T16:53:24.930Z,5.97
2019-04-30T16:55:55.469Z,1.80
2019-04-30T16:58:23.012Z,1.30
2019-04-30T17:00:49.671Z,1.45
2019-04-30T17:03:24.070Z,1.35
2019-04-30T17:05:52.616Z,1.15
2019-04-30T17:08:39.107Z,2.55
2019-04-30T17:11:07.610Z,1.55
2019-04-30T17:13:45.352Z,1.45
2019-04-30T17:16:13.846Z,1.10
2019-04-30T17:18:43.028Z,1.30
2019-04-30T17:21:09.923Z,0.90
2019-04-30T17:23:36.589Z,1.00
2019-04-30T17:26:05.535Z,1.77
2019-04-30T17:28:35.949Z,2.65
2019-04-30T17:31:02.636Z,3.37
2019-04-30T17:33:29.231Z,8.00
2019-04-30T17:35:55.815Z,6.47
2019-04-30T17:38:22.384Z,4.95
2019-04-30T17:40:49.752Z,5.35
2019-04-30T17:43:16.503Z,2.30
2019-04-30T17:45:43.250Z,1.77
2019-04-30T17:48:09.719Z,2.10
2019-04-30T17:50:36.431Z,2.25
2019-04-30T17:53:03.327Z,2.20
2019-04-30T17:55:29.758Z,2.35
2019-04-30T17:57:56.325Z,3.00
2019-04-30T18:00:23.717Z,3.70
2019-04-30T18:02:50.337Z,3.85
2019-04-30T18:05:19.477Z,2.92
2019-04-30T18:07:46.308Z,2.60
2019-04-30T18:10:14.157Z,1.87
2019-04-30T18:12:40.775Z,1.90
2019-04-30T18:15:12.647Z,2.60
2019-04-30T18:17:39.491Z,3.55
2019-04-30T18:20:09.035Z,3.80
2019-04-30T18:22:55.576Z,3.60
2019-04-30T18:25:39.285Z,3.33
2019-04-30T18:28:09.023Z,2.57
2019-04-30T18:30:39.127Z,3.12
2019-04-30T18:33:06.839Z,3.58
2019-04-30T18:35:33.823Z,2.60
2019-04-30T18:38:00.485Z,3.00
2019-04-30T18:40:27.300Z,2.40
2019-04-30T18:42:54.386Z,4.10
2019-04-30T18:45:21.257Z,2.62
2019-04-30T18:47:48.504Z,2.45
2019-04-30T18:50:15.709Z,2.30
2019-04-30T18:52:42.481Z,3.98
2019-04-30T18:55:09.358Z,3.08
2019-04-30T18:57:35.959Z,2.42
2019-04-30T19:00:06.804Z,3.65
2019-04-30T19:02:34.531Z,5.33
2019-04-30T19:05:01.282Z,3.20
2019-04-30T19:07:42.264Z,4.28
2019-04-30T19:10:29.757Z,3.80
2019-04-30T19:13:08.957Z,4.33
2019-04-30T19:16:17.880Z,2.60
2019-04-30T19:18:35.101Z,2.20
2019-04-30T19:21:03.689Z,2.33
2019-04-30T19:23:30.417Z,2.42
2019-04-30T19:25:59.714Z,3.83
2019-04-30T19:28:28.577Z,2.77
2019-04-30T19:30:58.396Z,2.10
2019-04-30T19:33:23.707Z,2.70
2019-04-30T19:35:50.663Z,23.98
2019-04-30T19:38:17.582Z,23.92
2019-04-30T19:40:44.706Z,17.42
2019-04-30T19:43:11.275Z,10.10
2019-04-30T19:45:44.607Z,8.80
2019-04-30T19:48:16.022Z,2.90
2019-04-30T19:50:42.086Z,2.30
2019-04-30T19:53:08.876Z,2.62
2019-04-30T19:55:35.545Z,3.00
2019-04-30T19:58:02.009Z,2.95
2019-04-30T20:00:29.105Z,3.40
2019-04-30T20:02:58.064Z,4.25
2019-04-30T20:05:34.857Z,4.10
2019-04-30T20:08:14.060Z,4.37
2019-04-30T20:10:46.705Z,4.90
2019-04-30T20:13:32.858Z,4.50
2019-04-30T20:15:59.263Z,7.40
2019-04-30T20:18:32.205Z,7.08
2019-04-30T20:21:09.073Z,5.78
2019-04-30T20:23:41.884Z,6.42
2019-04-30T20:26:16.865Z,7.33
2019-04-30T20:28:53.044Z,6.83
2019-04-30T20:31:28.866Z,7.20
2019-04-30T20:34:02.774Z,6.55
2019-04-30T20:39:17.183Z,6.58
2019-04-30T20:41:47.924Z,7.03
2019-04-30T20:44:15.903Z,7.47
2019-04-30T20:46:42.366Z,6.80
2019-04-30T20:49:09.193Z,7.15
2019-04-30T20:51:35.835Z,7.35
2019-04-30T20:54:02.517Z,8.73
2019-04-30T20:56:29.278Z,8.88
2019-04-30T20:58:59.822Z,11.05
2019-04-30T21:01:24.145Z,10.15
2019-04-30T21:03:50.627Z,9.45
2019-04-30T21:06:17.236Z,9.55
2019-04-30T21:11:36.092Z,7.10
2019-04-30T21:14:11.389Z,5.00
2019-04-30T21:16:40.279Z,3.67
2019-04-30T21:19:11.606Z,4.87
2019-04-30T21:21:39.429Z,5.10
2019-04-30T21:24:06.193Z,3.67
2019-04-30T21:26:32.674Z,3.58
2019-04-30T21:29:11.172Z,5.05
2019-04-30T21:31:49.773Z,3.85
2019-04-30T21:34:24.355Z,3.37
2019-04-30T21:36:54.369Z,3.90
2019-04-30T21:39:21.881Z,4.05
2019-04-30T21:41:49.422Z,3.92
2019-04-30T21:44:18.299Z,5.72
2019-04-30T21:46:44.745Z,6.65
2019-04-30T21:49:11.337Z,4.78
2019-04-30T21:51:39.978Z,4.75
2019-04-30T21:54:06.662Z,4.00
2019-04-30T21:56:33.133Z,8.15
2019-04-30T21:58:59.618Z,6.15
2019-04-30T22:04:28.196Z,4.40
2019-04-30T22:07:06.586Z,8.50
2019-04-30T22:09:33.495Z,4.80
2019-04-30T22:12:00.085Z,4.17
2019-04-30T22:14:26.753Z,5.17
2019-04-30T22:16:53.245Z,4.35
2019-04-30T22:19:19.738Z,4.30
2019-04-30T22:21:46.396Z,4.25
2019-04-30T22:24:12.900Z,4.30
2019-04-30T22:26:39.539Z,4.58
2019-04-30T22:29:06.004Z,4.10
2019-04-30T22:31:32.458Z,4.20
2019-04-30T22:33:59.032Z,4.08
2019-04-30T22:36:29.027Z,5.08
2019-04-30T22:38:57.604Z,3.75
2019-04-30T22:41:25.947Z,3.35
2019-04-30T22:43:52.401Z,4.90
2019-04-30T22:46:19.487Z,4.40
2019-04-30T22:48:46.238Z,3.60
2019-04-30T22:51:12.807Z,4.92
2019-04-30T22:53:39.277Z,7.10
2019-04-30T22:56:05.793Z,8.58
2019-04-30T22:58:32.276Z,12.80
2019-04-30T23:01:00.631Z,20.75
2019-04-30T23:03:31.694Z,16.30
2019-04-30T23:05:58.245Z,7.75
2019-04-30T23:08:24.685Z,10.75
2019-04-30T23:10:51.193Z,9.65
2019-04-30T23:13:17.660Z,9.38
2019-04-30T23:15:44.111Z,9.73
2019-04-30T23:18:10.572Z,6.37
2019-04-30T23:20:37.027Z,10.13
2019-04-30T23:23:03.575Z,11.25
2019-04-30T23:25:30.106Z,7.37
2019-04-30T23:27:56.591Z,7.10
2019-04-30T23:30:23.044Z,6.62
2019-04-30T23:32:49.511Z,7.67
2019-04-30T23:35:16.072Z,9.10
2019-04-30T23:37:42.591Z,8.85
2019-04-30T23:40:32.226Z,8.25
2019-04-30T23:42:58.726Z,7.87
2019-04-30T23:45:25.691Z,6.90
2019-04-30T23:47:52.263Z,6.60
2019-04-30T23:50:20.339Z,7.72
2019-04-30T23:52:46.989Z,6.37
2019-04-30T23:55:14.866Z,7.30
2019-04-30T23:57:41.311Z,6.05
